Time;durP1;ratioP1;P1;durP2;ratioP2;P2;SDS_P1;SDS_P2;PMS_P1;PMS_P2;Temp;Humidity;BMP_temperature;BMP_pressure;BME280_temperature;BME280_humidity;BME280_pressure;Samples;Min_cycle;Max_cycle;Signal;HPM_P1;HPM_P2
2022/12/26 00:01:13;;;;;;;;;;;;;;;8.65;100.00;100991.41;5018819;28;19913;-77
2022/12/26 00:03:38;;;;;;;;;;;;;;;8.65;100.00;100994.88;5018825;28;20100;-77
2022/12/26 00:06:04;;;;;;;;;;;;;;;8.65;100.00;100994.03;5018964;28;19921;-77
2022/12/26 00:08:29;;;;;;;;;;;;;;;8.64;100.00;100987.97;5018769;28;20094;-77
2022/12/26 00:10:54;;;;;;;;;;;;;;;8.64;100.00;100995.78;5017322;28;20200;-77
2022/12/26 00:13:20;;;;;;;;;;;;;;;8.64;100.00;100994.91;5018445;28;19960;-77
2022/12/26 00:15:45;;;;;;;;;;;;;;;8.64;100.00;101006.25;5018333;28;20077;-77
2022/12/26 00:18:10;;;;;;;;;;;;;;;8.63;100.00;100998.44;5016944;28;20082;-77
2022/12/26 00:20:36;;;;;;;;;;;;;;;8.63;100.00;100999.28;5020320;28;19929;-77
2022/12/26 00:23:01;;;;;;;;;;;;;;;8.63;100.00;101014.94;5020815;28;19914;-77
2022/12/26 00:25:26;;;;;;;;;;;;;;;8.62;100.00;101015.00;5026352;28;19940;-77
2022/12/26 00:27:51;;;;;;;;;;;;;;;8.62;100.00;101012.38;5019901;28;19929;-77
2022/12/26 00:30:17;;;;;;;;;;;;;;;8.61;100.00;101006.31;5029630;28;19921;-77
2022/12/26 00:32:42;;;;;;;;;;;;;;;8.61;100.00;101014.16;5025872;28;19925;-79
2022/12/26 00:35:07;;;;;;;;;;;;;;;8.61;100.00;101011.53;5023431;28;19921;-77
2022/12/26 00:37:33;;;;;;;;;;;;;;;8.60;100.00;101007.25;5024077;28;20016;-77
2022/12/26 00:39:58;;;;;;;;;;;;;;;8.62;100.00;101017.59;5019492;28;19925;-77
2022/12/26 00:42:23;;;;;;;;;;;;;;;8.60;100.00;101014.19;5019786;28;20287;-77
2022/12/26 00:44:49;;;;;;;;;;;;;;;8.61;100.00;101010.69;5026132;28;19917;-77
2022/12/26 00:47:14;;;;;;;;;;;;;;;8.61;100.00;101002.84;5015789;28;19956;-77
2022/12/26 00:49:39;;;;;;;;;;;;;;;8.60;100.00;101002.00;5018839;28;19921;-77
2022/12/26 00:52:04;;;;;;;;;;;;;;;8.59;100.00;101008.13;5023722;28;19932;-77
2022/12/26 00:54:30;;;;;;;;;;;;;;;8.59;100.00;101002.06;5022930;28;20219;-77
2022/12/26 00:56:55;;;;;;;;;;;;;;;8.60;100.00;100999.41;5022862;28;19953;-77
2022/12/26 00:59:20;;;;;;;;;;;;;;;8.60;100.00;100998.53;5031520;28;19925;-77
2022/12/26 01:01:45;;;;;;;;;;;;;;;8.59;100.00;100989.00;5024835;28;20212;-77
2022/12/26 01:04:11;;;;;;;;;;;;;;;8.58;100.00;100985.50;5026583;28;19921;-77
2022/12/26 01:06:36;;;;;;;;;;;;;;;8.57;100.00;100985.59;5026377;28;20174;-77
2022/12/26 01:09:01;;;;;;;;;;;;;;;8.56;100.00;101004.75;5027397;28;19920;-77
2022/12/26 01:11:38;;;;;;;;;;;;;;;8.56;100.00;101002.97;5027459;28;19922;-77
2022/12/26 01:14:04;;;;;;;;;;;;;;;8.55;100.00;100998.69;5026746;28;19944;-77
2022/12/26 01:16:29;;;;;;;;;;;;;;;8.55;100.00;100990.84;5027314;28;20324;-77
2022/12/26 01:18:55;;;;;;;;;;;;;;;8.56;100.00;100981.25;5025394;28;20117;-77
2022/12/26 01:21:20;;;;;;;;;;;;;;;8.56;100.00;100989.94;5026198;28;19921;-77
2022/12/26 01:23:45;;;;;;;;;;;;;;;8.56;100.00;100983.88;5027824;28;19960;-77
2022/12/26 01:26:10;;;;;;;;;;;;;;;8.56;100.00;100991.69;5025530;28;19921;-77
2022/12/26 01:28:36;;;;;;;;;;;;;;;8.55;100.00;100988.25;5027375;28;19922;-77
2022/12/26 01:31:04;;;;;;;;;;;;;;;8.55;100.00;100988.25;5029293;28;19979;-77
2022/12/26 01:33:30;;;;;;;;;;;;;;;8.55;100.00;100989.97;5026336;28;20108;-77
2022/12/26 01:35:55;;;;;;;;;;;;;;;8.55;100.00;100992.59;5027701;28;19991;-77
2022/12/26 01:38:21;;;;;;;;;;;;;;;8.55;100.00;100993.47;5027180;28;19972;-77
2022/12/26 01:40:46;;;;;;;;;;;;;;;8.55;100.00;101001.28;5026626;28;19925;-77
2022/12/26 01:43:13;;;;;;;;;;;;;;;8.57;100.00;100996.03;5037437;28;19913;-77
2022/12/26 01:45:38;;;;;;;;;;;;;;;8.56;100.00;101002.97;5037204;28;19984;-77
2022/12/26 01:48:24;;;;;;;;;;;;;;;8.56;100.00;100999.53;5036613;28;20086;-77
2022/12/26 01:50:58;;;;;;;;;;;;;;;8.55;100.00;101006.50;5036813;28;19992;-77
2022/12/26 01:53:42;;;;;;;;;;;;;;;8.56;100.00;101012.59;5037236;28;19917;-77
2022/12/26 01:56:12;;;;;;;;;;;;;;;8.53;100.00;101010.94;5036384;28;19909;-77
2022/12/26 01:58:43;;;;;;;;;;;;;;;8.51;100.00;100997.03;5036653;28;19917;-77
2022/12/26 02:01:09;;;;;;;;;;;;;;;8.52;100.00;101006.59;5056939;28;19974;-77
2022/12/26 02:06:23;;;;;;;;;;;;;;;8.53;100.00;100999.59;5056749;28;20198;-77
2022/12/26 02:08:49;;;;;;;;;;;;;;;8.53;100.00;101004.81;5055680;28;19987;-77
2022/12/26 02:11:23;;;;;;;;;;;;;;;8.53;100.00;101004.81;5039371;28;19979;-77
2022/12/26 02:13:48;;;;;;;;;;;;;;;8.53;100.00;101010.03;5056794;28;19948;-77
2022/12/26 02:16:15;;;;;;;;;;;;;;;8.53;100.00;101003.09;5055844;28;19921;-77
2022/12/26 02:18:40;;;;;;;;;;;;;;;8.53;100.00;101007.44;5056871;28;19931;-77
2022/12/26 02:21:18;;;;;;;;;;;;;;;8.53;100.00;100992.66;5055808;28;19925;-77
2022/12/26 02:24:02;;;;;;;;;;;;;;;8.53;100.00;100984.81;5056718;28;19951;-77
2022/12/26 02:26:46;;;;;;;;;;;;;;;8.52;100.00;100980.50;5057096;28;19923;-77
2022/12/26 02:29:34;;;;;;;;;;;;;;;8.52;100.00;100985.72;5057080;28;19948;-77
2022/12/26 02:32:18;;;;;;;;;;;;;;;8.53;100.00;100986.56;5037514;28;19962;-77
2022/12/26 02:34:55;;;;;;;;;;;;;;;8.52;100.00;100975.28;5056713;28;20258;-77
2022/12/26 02:37:40;;;;;;;;;;;;;;;8.52;100.00;100988.31;5056884;28;19917;-77
2022/12/26 02:40:20;;;;;;;;;;;;;;;8.51;100.00;100989.22;5055707;28;19932;-77
2022/12/26 02:42:48;;;;;;;;;;;;;;;8.51;100.00;100984.00;5055794;28;20183;-77
2022/12/26 02:48:04;;;;;;;;;;;;;;;8.51;100.00;100986.59;5056809;28;19951;-77
2022/12/26 03:13:10;;;;;;;;;;;;;;;8.43;100.00;100994.66;5060366;28;19924;-77
2022/12/26 03:18:23;;;;;;;;;;;;;;;8.41;100.00;100999.03;5059969;28;19916;-77
2022/12/26 03:20:49;;;;;;;;;;;;;;;8.39;100.00;100993.00;5059808;28;19982;-77
2022/12/26 03:23:16;;;;;;;;;;;;;;;8.39;100.00;100990.41;5060051;28;19921;-77
2022/12/26 03:28:32;;;;;;;;;;;;;;;8.37;100.00;100986.16;5048452;28;19939;-77
2022/12/26 03:31:00;;;;;;;;;;;;;;;8.36;100.00;100982.66;5056642;28;19917;-77
2022/12/26 03:36:14;;;;;;;;;;;;;;;8.35;100.00;100978.34;5059898;28;20275;-77
2022/12/26 03:38:50;;;;;;;;;;;;;;;8.36;100.00;100973.97;5059214;28;19944;-77
2022/12/26 04:20:58;;;;;;;;;;;;;;;8.25;100.00;101001.22;5057813;28;19975;-77
2022/12/26 04:46:00;;;;;;;;;;;;;;;8.14;100.00;100979.81;5018876;28;19916;-77
2022/12/26 04:51:10;;;;;;;;;;;;;;;8.14;100.00;100976.34;5018754;28;19974;-77
2022/12/26 04:53:35;;;;;;;;;;;;;;;8.13;100.00;100965.06;5018353;28;20227;-77
2022/12/26 04:56:01;;;;;;;;;;;;;;;8.13;100.00;100970.28;5018891;28;19913;-77
2022/12/26 04:58:26;;;;;;;;;;;;;;;8.12;100.00;100972.94;5018148;28;19968;-77
2022/12/26 05:00:51;;;;;;;;;;;;;;;8.12;100.00;100970.34;5051371;28;20262;-77
2022/12/26 05:09:47;;;;;;;;;;;;;;;8.12;100.00;100954.69;5035782;28;19995;-77
2022/12/26 05:11:53;;;;;;;;;;;;;;;8.13;100.00;100972.03;5043921;28;19925;-77
2022/12/26 05:14:18;;;;;;;;;;;;;;;8.11;100.00;100974.66;5057917;28;19960;-77
2022/12/26 05:30:25;;;;;;;;;;;;;;;8.11;100.00;100986.88;5057383;28;19915;-77
2022/12/26 05:35:34;;;;;;;;;;;;;;;8.10;100.00;100986.03;5037036;28;19979;-77
2022/12/26 05:38:00;;;;;;;;;;;;;;;8.10;100.00;100980.81;5038081;28;20208;-77
2022/12/26 05:40:25;;;;;;;;;;;;;;;8.11;100.00;100981.66;5037212;28;19917;-77
2022/12/26 05:42:50;;;;;;;;;;;;;;;8.09;100.00;100966.03;5037378;28;19928;-77
2022/12/26 05:45:16;;;;;;;;;;;;;;;8.08;100.00;100975.63;5037382;28;19921;-77
2022/12/26 05:47:41;;;;;;;;;;;;;;;8.08;100.00;100972.16;5037511;28;19975;-77
2022/12/26 05:50:07;;;;;;;;;;;;;;;8.07;100.00;100971.28;5037475;28;19984;-77
2022/12/26 05:52:32;;;;;;;;;;;;;;;8.06;100.00;100972.22;5035500;28;19917;-77
2022/12/26 05:54:57;;;;;;;;;;;;;;;8.06;100.00;100977.44;5037512;28;20145;-77
2022/12/26 05:57:23;;;;;;;;;;;;;;;8.06;100.00;100971.38;5037193;28;20108;-77
2022/12/26 05:59:48;;;;;;;;;;;;;;;8.06;100.00;100977.44;5045805;28;20089;-77
2022/12/26 06:02:13;;;;;;;;;;;;;;;8.07;100.00;100984.34;5039175;28;19920;-77
2022/12/26 06:04:38;;;;;;;;;;;;;;;8.08;100.00;100983.44;5056769;28;19983;-77
2022/12/26 06:07:04;;;;;;;;;;;;;;;8.06;100.00;100974.81;5057233;28;19979;-77
2022/12/26 06:09:29;;;;;;;;;;;;;;;8.06;100.00;100982.66;5057130;28;20242;-77
2022/12/26 06:11:54;;;;;;;;;;;;;;;8.04;100.00;100989.66;5039100;28;19947;-77
2022/12/26 06:14:19;;;;;;;;;;;;;;;8.03;100.00;100995.75;5055813;28;19988;-77
2022/12/26 06:16:45;;;;;;;;;;;;;;;8.02;100.00;100995.78;5055619;28;19928;-77
2022/12/26 06:19:10;;;;;;;;;;;;;;;8.01;100.00;100984.53;5056969;28;20194;-77
2022/12/26 06:21:35;;;;;;;;;;;;;;;8.01;100.00;100989.72;5056971;28;20096;-77
2022/12/26 06:24:00;;;;;;;;;;;;;;;8.01;100.00;100984.53;5057117;28;19948;-77
2022/12/26 06:26:26;;;;;;;;;;;;;;;8.02;100.00;100990.59;5057116;28;19917;-77
2022/12/26 06:28:51;;;;;;;;;;;;;;;8.00;100.00;100985.41;5056780;28;20547;-77
2022/12/26 06:31:19;;;;;;;;;;;;;;;8.02;100.00;100987.97;5055496;28;19963;-77
2022/12/26 06:33:44;;;;;;;;;;;;;;;8.01;100.00;100989.72;5055324;28;19916;-77
2022/12/26 06:36:14;;;;;;;;;;;;;;;8.01;100.00;100991.50;5056122;28;19950;-77
2022/12/26 06:38:40;;;;;;;;;;;;;;;8.01;100.00;100981.91;5056689;28;19971;-77
2022/12/26 06:41:06;;;;;;;;;;;;;;;8.01;100.00;100975.84;5057053;28;19912;-77
2022/12/26 06:43:31;;;;;;;;;;;;;;;8.01;100.00;100976.69;5058242;28;20203;-77
2022/12/26 06:45:57;;;;;;;;;;;;;;;8.00;100.00;100981.94;5059012;28;19928;-77
2022/12/26 06:48:22;;;;;;;;;;;;;;;7.99;100.00;100986.31;5058985;28;19916;-77
2022/12/26 06:50:47;;;;;;;;;;;;;;;7.98;100.00;100997.63;5060487;28;19915;-77
2022/12/26 06:53:13;;;;;;;;;;;;;;;7.98;100.00;100999.41;5060227;28;19936;-77
2022/12/26 06:55:38;;;;;;;;;;;;;;;7.99;100.00;100995.91;5060833;28;19913;-77
2022/12/26 06:58:03;;;;;;;;;;;;;;;7.98;100.00;100997.63;5059189;28;20081;-77
2022/12/26 07:00:28;;;;;;;;;;;;;;;7.99;100.00;100998.50;5060393;28;19921;-77
2022/12/26 07:02:54;;;;;;;;;;;;;;;8.01;100.00;100989.72;5059893;28;20276;-77
2022/12/26 07:05:19;;;;;;;;;;;;;;;8.01;100.00;101002.78;5058950;28;19959;-77
2022/12/26 07:07:49;;;;;;;;;;;;;;;8.03;100.00;101002.75;5060100;28;19928;-77
2022/12/26 07:10:14;;;;;;;;;;;;;;;8.03;100.00;101000.13;5060447;28;19908;-77
2022/12/26 07:12:40;;;;;;;;;;;;;;;8.03;100.00;100989.69;5059951;28;19912;-77
2022/12/26 07:15:08;;;;;;;;;;;;;;;8.03;100.00;100993.16;5060077;28;20008;-77
2022/12/26 07:17:34;;;;;;;;;;;;;;;8.03;100.00;100993.16;5059410;28;19921;-77
2022/12/26 07:19:59;;;;;;;;;;;;;;;8.04;100.00;100996.59;5060015;28;19917;-77
2022/12/26 07:22:24;;;;;;;;;;;;;;;8.05;100.00;101003.56;5060144;28;19917;-77
2022/12/26 07:24:50;;;;;;;;;;;;;;;8.05;100.00;100999.19;5041849;28;19967;-77
2022/12/26 07:27:15;;;;;;;;;;;;;;;8.06;100.00;101015.72;5058589;28;20206;-77
2022/12/26 07:29:40;;;;;;;;;;;;;;;8.05;100.00;101001.78;5059709;28;19916;-77
2022/12/26 07:32:05;;;;;;;;;;;;;;;8.06;100.00;101016.56;5059777;28;19979;-77
2022/12/26 07:34:31;;;;;;;;;;;;;;;8.05;100.00;101013.97;5058545;28;19936;-77
2022/12/26 07:36:56;;;;;;;;;;;;;;;8.06;100.00;101010.50;5058396;28;19980;-77
2022/12/26 07:39:21;;;;;;;;;;;;;;;8.06;100.00;101003.50;5059454;28;19917;-77
2022/12/26 07:41:59;;;;;;;;;;;;;;;8.07;100.00;101004.34;5059403;28;19913;-77
2022/12/26 07:44:25;;;;;;;;;;;;;;;8.06;100.00;101013.09;5059582;28;20456;-77
2022/12/26 07:46:50;;;;;;;;;;;;;;;8.06;100.00;101008.72;5059233;28;19948;-77
2022/12/26 07:49:16;;;;;;;;;;;;;;;8.06;100.00;101016.56;5058527;28;19919;-77
2022/12/26 07:51:41;;;;;;;;;;;;;;;8.07;100.00;101012.19;5057944;28;19988;-77
2022/12/26 07:54:06;;;;;;;;;;;;;;;8.09;100.00;101015.59;5059420;28;19932;-77
2022/12/26 07:56:32;;;;;;;;;;;;;;;8.09;100.00;101013.00;5058710;28;19921;-77
2022/12/26 07:58:57;;;;;;;;;;;;;;;8.08;100.00;101022.56;5056811;28;19913;-77
2022/12/26 08:01:23;;;;;;;;;;;;;;;8.08;100.00;101012.16;5018449;28;20137;-77
2022/12/26 08:03:48;;;;;;;;;;;;;;;8.09;100.00;101026.03;5019601;28;19909;-77
2022/12/26 08:06:13;;;;;;;;;;;;;;;8.10;100.00;101019.09;5019127;28;19921;-77
2022/12/26 08:08:39;;;;;;;;;;;;;;;8.11;100.00;101026.00;5018182;28;19921;-77
2022/12/26 08:11:05;;;;;;;;;;;;;;;8.11;100.00;101024.22;5018451;28;19976;-77
2022/12/26 08:13:31;;;;;;;;;;;;;;;8.11;100.00;101047.72;5017890;28;20159;-77
2022/12/26 08:15:56;;;;;;;;;;;;;;;8.12;100.00;101091.19;5019122;28;19913;-77
2022/12/26 08:18:22;;;;;;;;;;;;;;;8.12;100.00;101099.00;5019153;28;19909;-77
2022/12/26 08:20:47;;;;;;;;;;;;;;;8.12;100.00;101104.22;5019284;28;19926;-77
2022/12/26 08:23:13;;;;;;;;;;;;;;;8.12;100.00;101106.81;5017585;28;19985;-77
2022/12/26 08:25:38;;;;;;;;;;;;;;;8.10;100.00;101086.91;5019081;28;19914;-77
2022/12/26 08:28:03;;;;;;;;;;;;;;;8.09;100.00;101104.28;5019104;28;19983;-77
2022/12/26 08:30:28;;;;;;;;;;;;;;;8.06;100.00;101096.56;5018986;28;19985;-77
2022/12/26 08:32:54;;;;;;;;;;;;;;;8.05;100.00;101110.50;5018577;28;19936;-77
2022/12/26 08:35:19;;;;;;;;;;;;;;;8.04;100.00;101113.97;5017918;28;19992;-77
2022/12/26 08:37:45;;;;;;;;;;;;;;;8.04;100.00;101124.41;5022735;28;20104;-77
2022/12/26 08:40:10;;;;;;;;;;;;;;;8.03;100.00;101120.97;5038640;28;19913;-77
2022/12/26 08:42:36;;;;;;;;;;;;;;;8.03;100.00;101134.00;5038402;28;20052;-77
2022/12/26 08:45:01;;;;;;;;;;;;;;;8.01;100.00;101138.41;5038864;28;19928;-77
2022/12/26 08:47:26;;;;;;;;;;;;;;;8.00;100.00;101146.25;5020693;28;19921;-77
2022/12/26 08:49:52;;;;;;;;;;;;;;;7.98;100.00;101148.91;5037206;28;19921;-77
2022/12/26 08:52:17;;;;;;;;;;;;;;;7.99;100.00;101161.06;5038311;28;19972;-77
2022/12/26 08:54:43;;;;;;;;;;;;;;;7.97;100.00;101178.50;5038658;28;19919;-77
2022/12/26 08:57:08;;;;;;;;;;;;;;;7.97;100.00;101177.66;5037595;28;19913;-77
2022/12/26 08:59:33;;;;;;;;;;;;;;;7.96;100.00;101189.81;5037872;28;19925;-77
2022/12/26 09:01:59;;;;;;;;;;;;;;;7.95;100.00;101180.31;5038778;28;19921;-77
2022/12/26 09:04:24;;;;;;;;;;;;;;;7.96;100.00;101195.03;5038104;28;19913;-77
2022/12/26 09:06:50;;;;;;;;;;;;;;;7.96;100.00;101210.69;5038005;28;19944;-77
2022/12/26 09:09:15;;;;;;;;;;;;;;;7.95;100.00;101250.72;5031861;28;19926;-77
2022/12/26 09:11:40;;;;;;;;;;;;;;;7.88;100.00;101236.94;5031838;28;19921;-77
2022/12/26 09:14:06;;;;;;;;;;;;;;;7.80;100.00;101230.19;5036826;28;19932;-77
2022/12/26 09:16:37;;;;;;;;;;;;;;;7.74;100.00;101262.47;5025984;28;19909;-77
2022/12/26 09:19:03;;;;;;;;;;;;;;;7.65;100.00;101265.28;5031585;28;20232;-77
2022/12/26 09:21:29;;;;;;;;;;;;;;;7.59;100.00;101273.25;5025111;28;19929;-77
2022/12/26 09:23:58;;;;;;;;;;;;;;;7.54;99.67;101280.31;5026350;28;20036;-77
2022/12/26 09:26:24;;;;;;;;;;;;;;;7.44;98.90;101287.44;5026300;28;19923;-77
2022/12/26 09:28:50;;;;;;;;;;;;;;;7.41;99.74;101295.34;5028205;28;19917;-77
2022/12/26 09:31:17;;;;;;;;;;;;;;;7.41;100.00;101303.16;5027124;28;19917;-77
2022/12/26 09:33:42;;;;;;;;;;;;;;;7.33;99.61;101311.13;5026033;28;19924;-77
2022/12/26 09:36:09;;;;;;;;;;;;;;;7.26;97.89;101322.56;5037933;28;19975;-77
2022/12/26 09:38:35;;;;;;;;;;;;;;;7.23;98.26;101333.03;5037307;28;20171;-77
2022/12/26 09:41:00;;;;;;;;;;;;;;;7.21;99.82;101335.66;5036294;28;19917;-77
2022/12/26 09:43:32;;;;;;;;;;;;;;;7.18;99.04;101334.84;5037767;28;19983;-77
2022/12/26 09:46:06;;;;;;;;;;;;;;;7.16;100.00;101347.91;5036518;28;19909;-77
2022/12/26 09:48:38;;;;;;;;;;;;;;;7.07;97.91;101335.06;5036943;28;19916;-77
2022/12/26 09:51:03;;;;;;;;;;;;;;;7.05;97.20;101368.09;5036962;28;19958;-77
2022/12/26 09:53:34;;;;;;;;;;;;;;;7.00;97.32;101373.34;5046576;28;19979;-77
2022/12/26 09:56:02;;;;;;;;;;;;;;;6.92;96.46;101370.88;5025362;28;20176;-77
2022/12/26 09:58:29;;;;;;;;;;;;;;;6.87;95.92;101361.44;5034600;28;19926;-77
2022/12/26 10:00:54;;;;;;;;;;;;;;;6.87;97.65;101366.66;5035703;28;19909;-77
2022/12/26 10:03:20;;;;;;;;;;;;;;;6.82;96.28;101392.78;5029334;28;19917;-77
2022/12/26 10:06:04;;;;;;;;;;;;;;;6.80;95.93;101386.72;5033023;28;19921;-77
2022/12/26 10:08:47;;;;;;;;;;;;;;;6.77;95.95;101378.97;5028891;28;19932;-77
2022/12/26 10:11:23;;;;;;;;;;;;;;;6.70;93.85;101380.81;5034178;28;19917;-77
2022/12/26 10:13:50;;;;;;;;;;;;;;;6.71;95.52;101377.34;5020682;28;19952;-77
2022/12/26 10:16:36;;;;;;;;;;;;;;;6.72;96.99;101396.41;5026358;28;20201;-77
2022/12/26 10:19:07;;;;;;;;;;;;;;;6.71;96.15;101402.47;5022090;28;19918;-77
2022/12/26 10:21:49;;;;;;;;;;;;;;;6.69;95.50;101393.84;5029325;28;20160;-77
2022/12/26 10:24:22;;;;;;;;;;;;;;;6.66;94.90;101379.13;5039899;28;19917;-77
2022/12/26 10:26:49;;;;;;;;;;;;;;;6.68;95.61;101392.97;5021189;28;20266;-77
2022/12/26 10:29:25;;;;;;;;;;;;;;;6.70;96.03;101398.19;5029064;28;19916;-77
2022/12/26 10:31:51;;;;;;;;;;;;;;;6.68;95.13;101402.56;5060718;28;19951;-77
2022/12/26 10:34:22;;;;;;;;;;;;;;;6.64;93.21;101414.75;5059488;28;20162;-77
2022/12/26 10:36:49;;;;;;;;;;;;;;;6.62;92.84;101416.53;5039709;28;20209;-77
2022/12/26 10:39:18;;;;;;;;;;;;;;;6.58;92.58;101425.22;5034779;28;19917;-77
2022/12/26 10:41:49;;;;;;;;;;;;;;;6.59;93.03;101431.31;5025397;28;19921;-77
2022/12/26 10:44:14;;;;;;;;;;;;;;;6.59;93.38;101449.53;5020358;28;20333;-77
2022/12/26 10:46:55;;;;;;;;;;;;;;;6.55;91.28;101446.13;5023709;28;19913;-77
2022/12/26 10:49:21;;;;;;;;;;;;;;;6.54;92.11;101446.97;5040528;28;19982;-77
2022/12/26 10:51:48;;;;;;;;;;;;;;;6.52;93.21;101452.22;5040325;28;19940;-77
2022/12/26 10:54:16;;;;;;;;;;;;;;;6.52;92.77;101451.34;5022028;28;19952;-77
2022/12/26 10:56:42;;;;;;;;;;;;;;;6.48;91.91;101453.13;5020462;28;19922;-77
2022/12/26 10:59:11;;;;;;;;;;;;;;;6.46;90.25;101451.44;5023738;28;19967;-77
2022/12/26 11:01:38;;;;;;;;;;;;;;;6.43;90.04;101449.72;5032290;28;19923;-77
2022/12/26 11:04:05;;;;;;;;;;;;;;;6.42;89.88;101454.94;5027117;28;19921;-77
2022/12/26 11:06:36;;;;;;;;;;;;;;;6.42;91.83;101465.38;5020440;28;19917;-77
2022/12/26 11:09:03;;;;;;;;;;;;;;;6.42;93.15;101460.16;5021046;28;19992;-77
2022/12/26 11:11:47;;;;;;;;;;;;;;;6.45;95.05;101453.16;5026877;28;19925;-77
2022/12/26 11:14:27;;;;;;;;;;;;;;;6.48;95.69;101467.91;5037840;28;19917;-77
2022/12/26 11:16:54;;;;;;;;;;;;;;;6.49;96.68;101473.09;5037932;28;19924;-77
2022/12/26 11:19:27;;;;;;;;;;;;;;;6.45;92.07;101479.19;5037695;28;19913;-77
2022/12/26 11:21:52;;;;;;;;;;;;;;;6.48;93.42;101475.72;5036695;28;19921;-77
2022/12/26 11:24:18;;;;;;;;;;;;;;;6.50;93.88;101476.53;5037470;28;19917;-77
2022/12/26 11:26:44;;;;;;;;;;;;;;;6.52;97.07;101486.03;5038977;28;20216;-77
2022/12/26 11:29:20;;;;;;;;;;;;;;;6.52;94.77;101506.00;5038571;28;19920;-77
2022/12/26 11:31:54;;;;;;;;;;;;;;;6.52;95.19;101500.81;5037775;28;20003;-77
2022/12/26 11:34:26;;;;;;;;;;;;;;;6.50;94.28;101508.63;5039628;28;20109;-77
2022/12/26 11:36:51;;;;;;;;;;;;;;;6.45;90.46;101509.56;5038032;28;20124;-77
2022/12/26 11:39:22;;;;;;;;;;;;;;;6.42;89.50;101514.78;5039488;28;19921;-77
2022/12/26 11:41:48;;;;;;;;;;;;;;;6.41;90.10;101518.28;5039397;28;19921;-77
2022/12/26 11:44:13;;;;;;;;;;;;;;;6.34;87.47;101505.34;5021923;28;19964;-77
2022/12/26 11:46:44;;;;;;;;;;;;;;;6.38;91.56;101515.72;5039368;28;19916;-77
2022/12/26 11:49:16;;;;;;;;;;;;;;;6.33;89.38;101523.56;5038227;28;19991;-77
2022/12/26 11:51:44;;;;;;;;;;;;;;;6.32;89.66;101522.72;5037717;28;19924;-77
2022/12/26 11:54:21;;;;;;;;;;;;;;;6.35;94.03;101521.84;5039701;28;19952;-77
2022/12/26 11:56:46;;;;;;;;;;;;;;;6.31;92.38;101525.34;5039277;28;20236;-77
2022/12/26 11:59:19;;;;;;;;;;;;;;;6.29;88.84;101527.09;5042768;28;19921;-77
2022/12/26 12:01:45;;;;;;;;;;;;;;;6.26;88.16;101525.41;5058933;28;19942;-77
2022/12/26 12:04:10;;;;;;;;;;;;;;;6.28;91.42;101533.19;5057765;28;19940;-77
2022/12/26 12:06:38;;;;;;;;;;;;;;;6.23;88.42;101529.78;5058632;28;19921;-77
2022/12/26 12:09:33;;;;;;;;;;;;;;;6.21;88.52;101531.53;5057878;28;19917;-77
2022/12/26 12:12:04;;;;;;;;;;;;;;;6.16;87.21;101539.38;5049653;28;19916;-77
2022/12/26 12:14:37;;;;;;;;;;;;;;;6.14;85.51;101538.53;5057761;28;20007;-77
2022/12/26 12:17:12;;;;;;;;;;;;;;;6.15;88.68;101538.53;5057641;28;19940;-77
2022/12/26 12:19:55;;;;;;;;;;;;;;;6.12;87.22;101542.91;5058528;28;19925;-77
2022/12/26 12:22:40;;;;;;;;;;;;;;;6.13;89.85;101540.28;5057412;28;19967;-77
2022/12/26 12:25:23;;;;;;;;;;;;;;;6.18;93.01;101550.63;5058822;28;20027;-77
2022/12/26 12:28:07;;;;;;;;;;;;;;;6.20;94.60;101545.41;5058699;28;20314;-77
2022/12/26 12:30:46;;;;;;;;;;;;;;;6.18;91.96;101550.63;5027886;28;20105;-77
2022/12/26 12:33:17;;;;;;;;;;;;;;;6.21;92.14;101557.56;5018961;28;19924;-77
2022/12/26 12:35:45;;;;;;;;;;;;;;;6.20;91.70;101553.22;5018492;28;19956;-77
2022/12/26 12:38:29;;;;;;;;;;;;;;;6.17;90.60;101548.94;5018701;28;19936;-77
2022/12/26 12:40:54;;;;;;;;;;;;;;;6.12;87.92;101559.38;5016784;28;19921;-77
2022/12/26 12:43:20;;;;;;;;;;;;;;;6.15;91.78;101563.69;5018382;28;19940;-77
2022/12/26 12:45:48;;;;;;;;;;;;;;;6.15;93.28;101567.13;5018281;28;19941;-77
2022/12/26 12:48:22;;;;;;;;;;;;;;;6.18;95.56;101554.97;5018270;28;20090;-77
2022/12/26 12:50:47;;;;;;;;;;;;;;;6.14;92.46;101567.16;5018229;28;20018;-77
2022/12/26 12:53:22;;;;;;;;;;;;;;;6.17;94.08;101564.53;5018411;28;20201;-77
2022/12/26 12:56:06;;;;;;;;;;;;;;;6.11;89.53;101577.56;5018231;28;19936;-77
2022/12/26 12:58:50;;;;;;;;;;;;;;;6.07;87.32;101581.94;5016863;28;19917;-77
2022/12/26 13:01:23;;;;;;;;;;;;;;;6.04;88.08;101578.50;5018212;28;20112;-77
2022/12/26 13:04:03;;;;;;;;;;;;;;;6.02;88.43;101575.97;5016760;28;19972;-77
2022/12/26 13:06:35;;;;;;;;;;;;;;;6.04;90.21;101579.41;5018247;28;20266;-77
2022/12/26 13:09:12;;;;;;;;;;;;;;;6.02;88.65;101581.16;5018268;28;19910;-77
2022/12/26 13:11:39;;;;;;;;;;;;;;;6.00;87.40;101588.09;5017926;28;19918;-77
2022/12/26 13:14:15;;;;;;;;;;;;;;;5.98;86.41;101607.19;5018364;28;19909;-77
2022/12/26 13:16:52;;;;;;;;;;;;;;;6.00;88.86;101600.22;5017768;28;19917;-77
2022/12/26 13:19:39;;;;;;;;;;;;;;;5.93;85.28;101605.47;5017659;28;19929;-77
2022/12/26 13:22:09;;;;;;;;;;;;;;;5.97;89.90;101598.53;5017909;28;19919;-77
2022/12/26 13:24:38;;;;;;;;;;;;;;;5.96;91.75;101597.66;5017337;28;19939;-77
2022/12/26 13:27:06;;;;;;;;;;;;;;;5.94;86.83;101601.13;5017950;28;19984;-77
2022/12/26 13:29:52;;;;;;;;;;;;;;;5.93;88.14;101600.28;5029862;28;19908;-77
2022/12/26 13:32:26;;;;;;;;;;;;;;;5.86;82.73;101598.59;5057449;28;19917;-77
2022/12/26 13:34:52;;;;;;;;;;;;;;;5.85;82.17;101609.00;5057037;28;19909;-77
2022/12/26 13:37:36;;;;;;;;;;;;;;;5.84;83.12;101607.28;5055808;28;19909;-77
2022/12/26 13:40:21;;;;;;;;;;;;;;;5.80;81.50;101610.78;5057477;28;20169;-77
2022/12/26 13:45:34;;;;;;;;;;;;;;;5.80;84.43;101623.78;5057001;28;20211;-77
2022/12/26 13:48:00;;;;;;;;;;;;;;;5.78;83.53;101628.97;5057398;28;19913;-77
2022/12/26 13:50:44;;;;;;;;;;;;;;;5.74;81.16;101622.94;5057170;28;19909;-77
2022/12/26 13:53:29;;;;;;;;;;;;;;;5.72;80.82;101632.50;5056468;28;20250;-77
2022/12/26 13:55:55;;;;;;;;;;;;;;;5.70;80.99;101639.44;5057012;28;19915;-77
2022/12/26 13:58:38;;;;;;;;;;;;;;;5.68;79.07;101640.34;5057052;28;20279;-77
2022/12/26 14:01:04;;;;;;;;;;;;;;;5.67;79.88;101636.00;5019590;28;20243;-77
2022/12/26 14:03:44;;;;;;;;;;;;;;;5.64;79.67;101630.81;5017128;28;20084;-77
2022/12/26 14:06:15;;;;;;;;;;;;;;;5.66;83.92;101631.69;5017602;28;19945;-77
2022/12/26 14:09:16;;;;;;;;;;;;;;;5.64;81.57;101641.22;5017197;28;19909;-77
2022/12/26 14:11:44;;;;;;;;;;;;;;;5.58;77.89;101639.53;4975850;28;20255;-77
2022/12/26 14:14:31;;;;;;;;;;;;;;;5.59;80.99;101646.47;5009591;28;19940;-77
2022/12/26 14:16:57;;;;;;;;;;;;;;;5.56;79.83;101656.88;5017312;28;19964;-77
2022/12/26 14:19:28;;;;;;;;;;;;;;;5.58;82.86;101657.72;5016822;28;20082;-77
2022/12/26 14:22:12;;;;;;;;;;;;;;;5.57;83.83;101659.47;5017391;28;19906;-77
2022/12/26 14:25:01;;;;;;;;;;;;;;;5.56;82.00;101664.66;5016943;28;19925;-77
2022/12/26 14:27:35;;;;;;;;;;;;;;;5.53;80.68;101660.38;5017163;28;19941;-77
2022/12/26 14:30:20;;;;;;;;;;;;;;;5.53;81.87;101672.47;5017879;28;19924;-77
2022/12/26 14:33:01;;;;;;;;;;;;;;;5.55;85.17;101663.81;5015794;28;19917;-77
2022/12/26 14:35:32;;;;;;;;;;;;;;;5.57;85.87;101666.41;5016068;28;19918;-77
2022/12/26 14:38:00;;;;;;;;;;;;;;;5.56;83.46;101682.84;5016897;28;19914;-77
2022/12/26 14:40:27;;;;;;;;;;;;;;;5.55;83.62;101670.75;5029697;28;19972;-77
2022/12/26 14:43:11;;;;;;;;;;;;;;;5.55;85.22;101679.41;5023263;28;19909;-77
2022/12/26 14:45:37;;;;;;;;;;;;;;;5.56;87.07;101685.44;5024383;28;19921;-77
2022/12/26 14:48:22;;;;;;;;;;;;;;;5.58;88.04;101691.50;5019623;28;19977;-77
2022/12/26 14:50:48;;;;;;;;;;;;;;;5.56;85.60;101688.91;5024993;28;19932;-77
2022/12/26 14:53:23;;;;;;;;;;;;;;;5.56;85.31;101698.44;5024564;28;19913;-77
2022/12/26 14:56:06;;;;;;;;;;;;;;;5.57;87.59;101695.84;5015130;28;20231;-77
2022/12/26 14:58:48;;;;;;;;;;;;;;;5.58;88.26;101704.50;5027649;28;20000;-77